Time;durP1;ratioP1;P1;durP2;ratioP2;P2;SDS_P1;SDS_P2;PMS_P1;PMS_P2;Temp;Humidity;BMP_temperature;BMP_pressure;BME280_temperature;BME280_humidity;BME280_pressure;Samples;Min_cycle;Max_cycle;Signal;HPM_P1;HPM_P2
2022/03/08 00:00:27;;;;;;;31.13;15.13;;;5.10;99.90;;;;;;5031819;28;20209;-64
2022/03/08 00:02:54;;;;;;;25.33;15.30;;;5.00;99.90;;;;;;5031556;28;20182;-63
2022/03/08 00:05:22;;;;;;;25.97;15.37;;;5.10;99.90;;;;;;5030876;28;20265;-64
2022/03/08 00:07:48;;;;;;;23.33;14.50;;;5.10;99.90;;;;;;5030934;28;20256;-63
2022/03/08 00:10:14;;;;;;;25.43;14.37;;;5.30;99.90;;;;;;5030059;28;20265;-63
2022/03/08 00:12:40;;;;;;;24.00;14.47;;;5.10;99.90;;;;;;5030040;28;20186;-63
2022/03/08 00:15:10;;;;;;;24.50;14.13;;;5.00;99.90;;;;;;5031125;28;20248;-64
2022/03/08 00:17:36;;;;;;;24.90;15.10;;;5.00;99.90;;;;;;5029454;28;20279;-63
2022/03/08 00:20:04;;;;;;;23.83;13.70;;;5.10;99.90;;;;;;5030219;28;20640;-63
2022/03/08 00:22:30;;;;;;;26.90;13.83;;;5.00;99.90;;;;;;5030584;28;20199;-63
2022/03/08 00:24:55;;;;;;;28.83;14.00;;;5.00;99.90;;;;;;5030321;28;20186;-64
2022/03/08 00:27:21;;;;;;;30.60;14.67;;;5.20;99.90;;;;;;5029948;28;20421;-63
2022/03/08 00:29:47;;;;;;;24.00;14.83;;;5.00;99.90;;;;;;5030892;28;20188;-63
2022/03/08 00:32:12;;;;;;;28.73;14.90;;;5.00;99.90;;;;;;5031440;28;20174;-63
2022/03/08 00:34:38;;;;;;;25.37;14.40;;;5.00;99.90;;;;;;5030764;28;20182;-63
2022/03/08 00:37:04;;;;;;;28.13;15.03;;;5.20;99.90;;;;;;5030534;28;20252;-64
2022/03/08 00:39:30;;;;;;;25.27;14.00;;;5.10;99.90;;;;;;5030209;28;20209;-63
2022/03/08 00:41:55;;;;;;;28.13;15.47;;;5.00;99.90;;;;;;5030062;28;20170;-63
2022/03/08 00:44:21;;;;;;;24.73;14.93;;;5.00;99.90;;;;;;5030643;28;20219;-63
2022/03/08 00:46:47;;;;;;;27.57;16.00;;;5.10;99.90;;;;;;5030402;28;20182;-63
2022/03/08 00:49:13;;;;;;;26.90;15.67;;;5.10;99.90;;;;;;5030290;28;20280;-63
2022/03/08 00:51:39;;;;;;;25.67;15.87;;;5.10;99.90;;;;;;5030077;28;20190;-63
2022/03/08 00:54:05;;;;;;;26.50;14.80;;;5.10;99.90;;;;;;5029645;28;20186;-63
2022/03/08 00:56:30;;;;;;;26.53;15.33;;;5.20;99.90;;;;;;5030771;28;20173;-62
2022/03/08 00:58:56;;;;;;;26.33;15.50;;;5.10;99.90;;;;;;5028920;28;20619;-63
2022/03/08 01:01:22;;;;;;;24.70;15.03;;;5.20;99.90;;;;;;5011895;28;20695;-63
2022/03/08 01:03:47;;;;;;;29.60;15.90;;;5.20;99.90;;;;;;5028802;28;20687;-63
2022/03/08 01:06:13;;;;;;;26.73;15.53;;;5.30;99.90;;;;;;5029979;28;20616;-64
2022/03/08 01:08:39;;;;;;;27.00;16.40;;;5.30;99.90;;;;;;5030831;28;20224;-64
2022/03/08 01:11:04;;;;;;;32.03;15.67;;;5.30;99.90;;;;;;5028333;28;20201;-64
2022/03/08 01:13:30;;;;;;;27.70;16.13;;;5.50;99.90;;;;;;5030109;28;20186;-64
2022/03/08 01:15:56;;;;;;;27.57;16.60;;;5.30;99.90;;;;;;5029958;28;20212;-64
2022/03/08 01:18:21;;;;;;;31.57;17.43;;;5.40;99.90;;;;;;5029340;28;20632;-64
2022/03/08 01:20:47;;;;;;;26.50;16.70;;;5.40;99.90;;;;;;5029351;28;20207;-64
2022/03/08 01:23:13;;;;;;;27.93;15.97;;;5.40;99.90;;;;;;5029801;28;20533;-64
2022/03/08 01:25:40;;;;;;;26.13;16.47;;;5.40;99.90;;;;;;5029272;28;20202;-63
2022/03/08 01:28:08;;;;;;;27.47;16.67;;;5.50;99.90;;;;;;5029905;28;20243;-64
2022/03/08 01:30:35;;;;;;;26.77;16.97;;;5.40;99.90;;;;;;5030254;28;20182;-64
2022/03/08 01:33:01;;;;;;;32.70;17.07;;;5.40;99.90;;;;;;5029559;28;20184;-64
2022/03/08 01:35:27;;;;;;;33.00;18.03;;;5.50;99.90;;;;;;5011335;28;20324;-63
2022/03/08 01:37:53;;;;;;;32.07;16.63;;;5.40;99.90;;;;;;5033942;28;20232;-64
2022/03/08 01:40:19;;;;;;;27.97;17.23;;;5.30;99.90;;;;;;5029733;28;20684;-64
2022/03/08 01:42:48;;;;;;;33.80;17.80;;;5.40;99.90;;;;;;5029259;28;20242;-66
2022/03/08 01:45:16;;;;;;;26.90;15.90;;;5.40;99.90;;;;;;5029886;28;20181;-66
2022/03/08 01:47:42;;;;;;;29.43;16.97;;;5.30;99.90;;;;;;5029505;28;20174;-66
2022/03/08 01:50:09;;;;;;;32.30;18.17;;;5.30;99.90;;;;;;5028992;28;20217;-66
2022/03/08 01:52:37;;;;;;;30.00;17.23;;;5.30;99.90;;;;;;5028658;28;20186;-66
2022/03/08 01:55:04;;;;;;;27.17;16.80;;;5.20;99.90;;;;;;5027699;28;20209;-65
2022/03/08 01:57:29;;;;;;;32.17;18.23;;;5.20;99.90;;;;;;5029702;28;20304;-66
2022/03/08 01:59:55;;;;;;;30.83;17.20;;;5.20;99.90;;;;;;5028794;28;20712;-67
2022/03/08 02:02:22;;;;;;;27.13;16.10;;;5.20;99.90;;;;;;5028879;28;20180;-66
2022/03/08 02:04:49;;;;;;;29.37;17.67;;;5.10;99.90;;;;;;5029552;28;20269;-66
2022/03/08 02:07:14;;;;;;;34.50;16.73;;;5.10;99.90;;;;;;5029351;28;20178;-66
2022/03/08 02:09:40;;;;;;;30.33;17.40;;;5.00;99.90;;;;;;5029200;28;20694;-67
2022/03/08 02:12:06;;;;;;;29.63;16.87;;;5.10;99.90;;;;;;5027020;28;20623;-67
2022/03/08 02:14:32;;;;;;;37.30;17.50;;;5.00;99.90;;;;;;5029204;28;20180;-61
2022/03/08 02:16:59;;;;;;;32.27;18.53;;;5.00;99.90;;;;;;5032893;28;21669;-62
2022/03/08 02:19:24;;;;;;;33.37;18.57;;;5.10;99.90;;;;;;5033514;28;20240;-59
2022/03/08 02:21:51;;;;;;;30.00;16.87;;;4.90;99.90;;;;;;5033120;28;20182;-65
2022/03/08 02:24:17;;;;;;;34.93;18.30;;;5.00;99.90;;;;;;5033630;28;20170;-65
2022/03/08 02:26:45;;;;;;;32.03;18.23;;;5.00;99.90;;;;;;5033405;28;20284;-64
2022/03/08 02:29:11;;;;;;;30.20;18.00;;;4.80;99.90;;;;;;5032411;28;20193;-64
2022/03/08 02:31:37;;;;;;;33.03;19.53;;;4.80;99.90;;;;;;5033242;28;20177;-65
2022/03/08 02:34:04;;;;;;;33.23;17.40;;;5.10;99.90;;;;;;5031982;28;20178;-64
2022/03/08 02:36:30;;;;;;;31.80;19.10;;;4.90;99.90;;;;;;5032907;28;20197;-64
2022/03/08 02:38:55;;;;;;;32.40;19.23;;;5.00;99.90;;;;;;5032547;28;20224;-67
2022/03/08 02:41:21;;;;;;;35.40;19.00;;;4.70;99.90;;;;;;5032955;28;20673;-65
2022/03/08 02:43:47;;;;;;;33.00;18.33;;;4.60;99.90;;;;;;5033011;28;20261;-65
2022/03/08 02:46:13;;;;;;;37.07;18.43;;;4.60;99.90;;;;;;5032439;28;20740;-64
2022/03/08 02:48:39;;;;;;;27.07;15.83;;;4.70;99.90;;;;;;5032423;28;20226;-65
2022/03/08 02:51:04;;;;;;;40.07;18.80;;;4.60;99.90;;;;;;5032809;28;20192;-64
2022/03/08 02:53:31;;;;;;;37.60;17.17;;;4.60;99.90;;;;;;5032568;28;20367;-65
2022/03/08 02:55:56;;;;;;;31.10;17.97;;;4.40;99.90;;;;;;5033243;28;20169;-64
2022/03/08 02:58:22;;;;;;;34.63;18.90;;;4.60;99.90;;;;;;5032445;28;20202;-65
2022/03/08 03:00:48;;;;;;;35.43;18.60;;;4.90;99.90;;;;;;5030686;28;20591;-65
2022/03/08 03:03:14;;;;;;;40.43;17.13;;;4.50;99.90;;;;;;5031662;28;20621;-65
2022/03/08 03:05:39;;;;;;;36.43;19.47;;;4.70;99.90;;;;;;5030747;28;20186;-65
2022/03/08 03:08:06;;;;;;;30.87;14.23;;;4.60;99.90;;;;;;5030780;28;20273;-65
2022/03/08 03:10:32;;;;;;;37.47;18.37;;;4.40;99.90;;;;;;5031852;28;20226;-65
2022/03/08 03:12:58;;;;;;;34.80;18.23;;;4.40;99.90;;;;;;5031636;28;20173;-65
2022/03/08 03:15:26;;;;;;;32.07;18.53;;;4.50;99.90;;;;;;5031797;28;20209;-65
2022/03/08 03:17:52;;;;;;;31.67;18.23;;;4.50;99.90;;;;;;5031115;28;20214;-65
2022/03/08 03:20:21;;;;;;;41.13;19.33;;;4.30;99.90;;;;;;5031294;28;20170;-65
2022/03/08 03:22:47;;;;;;;30.30;17.23;;;4.40;99.90;;;;;;5030842;28;20192;-65
2022/03/08 03:25:14;;;;;;;33.80;17.00;;;4.70;99.90;;;;;;5031115;28;20173;-65
2022/03/08 03:27:40;;;;;;;38.37;18.00;;;4.60;99.90;;;;;;5030101;28;20186;-65
2022/03/08 03:30:09;;;;;;;36.37;19.00;;;4.50;99.90;;;;;;5029747;28;20178;-65
2022/03/08 03:32:35;;;;;;;35.77;18.40;;;4.20;99.90;;;;;;5031076;28;20174;-65
2022/03/08 03:35:02;;;;;;;33.27;18.93;;;4.20;99.90;;;;;;5030486;28;20434;-65
2022/03/08 03:37:28;;;;;;;36.87;19.43;;;4.20;99.90;;;;;;5030542;28;20304;-64
2022/03/08 03:39:54;;;;;;;44.03;19.53;;;4.40;99.90;;;;;;5030539;28;20257;-65
2022/03/08 03:42:19;;;;;;;37.67;19.10;;;4.30;99.90;;;;;;5030198;28;20182;-64
2022/03/08 03:44:45;;;;;;;38.13;18.40;;;4.90;99.90;;;;;;5031087;28;20166;-64
2022/03/08 03:47:11;;;;;;;41.97;19.77;;;4.10;99.90;;;;;;5030346;28;20593;-65
2022/03/08 03:49:37;;;;;;;36.10;19.43;;;4.10;99.90;;;;;;5030902;28;20279;-65
2022/03/08 03:52:03;;;;;;;33.97;19.77;;;4.40;99.90;;;;;;5030791;28;20662;-65
2022/03/08 03:54:29;;;;;;;34.80;18.73;;;4.00;99.90;;;;;;5030972;28;20651;-66
2022/03/08 03:56:55;;;;;;;34.07;19.43;;;4.00;99.90;;;;;;5031067;28;20177;-66
2022/03/08 03:59:20;;;;;;;30.90;18.70;;;4.00;99.90;;;;;;5030614;28;20648;-65
2022/03/08 04:01:46;;;;;;;34.03;19.30;;;3.90;99.90;;;;;;5029806;28;20231;-65
2022/03/08 04:04:12;;;;;;;34.90;18.70;;;3.80;99.90;;;;;;5030041;28;20652;-65
2022/03/08 04:06:38;;;;;;;35.47;18.73;;;4.10;99.90;;;;;;5030128;28;20743;-65
2022/03/08 04:09:04;;;;;;;29.53;18.40;;;3.50;99.90;;;;;;5030430;28;20178;-65
2022/03/08 04:11:30;;;;;;;35.23;19.30;;;3.80;99.90;;;;;;5030190;28;20289;-65
2022/03/08 04:13:56;;;;;;;33.83;16.83;;;3.30;99.90;;;;;;5030543;28;20296;-65
2022/03/08 04:16:21;;;;;;;35.40;17.40;;;4.10;99.90;;;;;;5029935;28;20182;-65
2022/03/08 04:18:47;;;;;;;34.27;19.33;;;3.30;99.90;;;;;;5030596;28;20213;-65
2022/03/08 04:21:13;;;;;;;34.90;19.27;;;3.90;99.90;;;;;;5030075;28;20660;-66
2022/03/08 04:23:38;;;;;;;35.00;18.03;;;3.80;99.90;;;;;;5030502;28;20649;-65
2022/03/08 04:26:04;;;;;;;35.97;18.83;;;3.70;99.90;;;;;;5030602;28;20189;-65
2022/03/08 04:28:30;;;;;;;33.27;18.03;;;4.10;99.90;;;;;;5030641;28;20196;-65
2022/03/08 04:30:56;;;;;;;33.13;18.30;;;3.20;99.90;;;;;;5030464;28;20669;-65
2022/03/08 04:33:21;;;;;;;34.70;17.67;;;3.70;99.90;;;;;;5030317;28;20611;-65
2022/03/08 04:35:47;;;;;;;33.70;18.30;;;3.30;99.90;;;;;;5029084;28;20245;-65
2022/03/08 04:38:13;;;;;;;36.33;17.73;;;3.70;99.90;;;;;;5028900;28;20688;-65
2022/03/08 04:40:39;;;;;;;34.03;18.47;;;3.60;99.90;;;;;;5029617;28;20188;-65
2022/03/08 04:43:05;;;;;;;33.70;18.27;;;3.70;99.90;;;;;;5030347;28;20188;-65
2022/03/08 04:45:31;;;;;;;35.10;18.63;;;3.00;99.90;;;;;;5029869;28;20186;-65
2022/03/08 04:47:56;;;;;;;34.07;18.37;;;3.60;99.90;;;;;;5030900;28;20181;-65
2022/03/08 04:50:22;;;;;;;27.57;13.50;;;3.20;99.90;;;;;;5030010;28;20181;-67
2022/03/08 04:52:49;;;;;;;27.73;15.00;;;3.20;99.90;;;;;;5029708;28;20221;-65
2022/03/08 04:55:16;;;;;;;30.70;16.50;;;3.00;99.90;;;;;;5030022;28;20178;-65
2022/03/08 04:57:41;;;;;;;34.03;17.40;;;3.20;99.90;;;;;;5030035;28;20283;-65
2022/03/08 05:00:13;;;;;;;31.57;17.73;;;2.90;99.90;;;;;;5030126;28;20542;-66
2022/03/08 05:02:40;;;;;;;32.83;16.37;;;3.10;99.90;;;;;;5030040;28;20174;-65
2022/03/08 05:05:08;;;;;;;38.83;17.13;;;3.10;99.90;;;;;;5029752;28;20177;-65
2022/03/08 05:07:35;;;;;;;31.30;14.43;;;3.00;99.90;;;;;;5029389;28;20276;-65
2022/03/08 05:10:04;;;;;;;30.73;16.03;;;2.90;99.90;;;;;;5030666;28;20694;-66
2022/03/08 05:12:30;;;;;;;32.17;17.80;;;3.00;99.90;;;;;;5030786;28;20205;-65
2022/03/08 05:14:57;;;;;;;36.17;18.00;;;3.20;99.90;;;;;;5029345;28;20174;-65
2022/03/08 05:17:23;;;;;;;32.70;15.37;;;3.00;99.90;;;;;;5029808;28;20832;-65
2022/03/08 05:19:48;;;;;;;30.90;15.40;;;3.20;99.90;;;;;;5030863;28;20265;-66
2022/03/08 05:22:17;;;;;;;32.00;18.03;;;2.90;99.90;;;;;;5030950;28;20190;-64
2022/03/08 05:24:43;;;;;;;24.70;12.13;;;2.90;99.90;;;;;;5012970;28;20174;-66
2022/03/08 05:27:09;;;;;;;37.43;17.83;;;3.10;99.90;;;;;;5030486;28;20196;-66
2022/03/08 05:29:35;;;;;;;32.93;15.50;;;3.10;99.90;;;;;;5030401;28;20235;-62
2022/03/08 05:32:01;;;;;;;35.43;18.23;;;2.90;99.90;;;;;;5029778;28;20310;-63
2022/03/08 05:34:27;;;;;;;37.63;16.93;;;2.90;99.90;;;;;;5029644;28;20288;-62
2022/03/08 05:36:53;;;;;;;34.10;17.83;;;2.90;99.90;;;;;;5027851;28;20166;-63
2022/03/08 05:39:19;;;;;;;37.23;18.73;;;3.00;99.90;;;;;;5029148;28;20550;-63
2022/03/08 05:41:45;;;;;;;39.27;18.60;;;3.00;99.90;;;;;;5029516;28;20174;-63
2022/03/08 05:44:11;;;;;;;44.30;18.17;;;3.00;99.90;;;;;;5028612;28;20243;-66
2022/03/08 05:46:37;;;;;;;39.20;19.50;;;3.00;99.90;;;;;;5027472;28;20186;-64
2022/03/08 05:49:03;;;;;;;26.20;14.47;;;3.00;99.90;;;;;;5031297;28;20260;-64
2022/03/08 05:51:29;;;;;;;36.50;19.20;;;3.10;99.90;;;;;;5035911;28;20204;-65
2022/03/08 05:53:54;;;;;;;37.80;18.90;;;2.80;99.90;;;;;;5036740;28;20632;-64
2022/03/08 05:56:20;;;;;;;39.47;18.63;;;3.00;99.90;;;;;;5035779;28;20663;-64
2022/03/08 05:58:46;;;;;;;33.50;17.70;;;3.30;99.90;;;;;;5036547;28;20214;-65
2022/03/08 06:01:12;;;;;;;40.27;19.77;;;3.00;99.90;;;;;;5036548;28;20180;-65
2022/03/08 06:03:37;;;;;;;30.10;13.87;;;3.00;99.90;;;;;;5035974;28;20201;-64
2022/03/08 06:06:03;;;;;;;37.97;19.80;;;3.60;99.90;;;;;;5036653;28;20169;-64
2022/03/08 06:08:29;;;;;;;36.93;18.77;;;3.00;99.90;;;;;;5035107;28;20652;-65
2022/03/08 06:10:54;;;;;;;35.57;18.30;;;3.00;99.90;;;;;;5035612;28;20185;-66
2022/03/08 06:13:20;;;;;;;39.23;19.00;;;3.10;99.90;;;;;;5036739;28;20230;-66
2022/03/08 06:15:46;;;;;;;47.03;20.33;;;3.00;99.90;;;;;;5036553;28;20652;-65
2022/03/08 06:18:11;;;;;;;33.43;16.60;;;2.90;99.90;;;;;;5036742;28;20205;-65
2022/03/08 06:20:37;;;;;;;41.00;18.43;;;3.50;99.90;;;;;;5035506;28;20529;-66
2022/03/08 06:23:03;;;;;;;33.57;16.70;;;3.10;99.90;;;;;;5035840;28;20706;-65
2022/03/08 06:25:29;;;;;;;38.23;19.10;;;3.00;99.90;;;;;;5034762;28;20178;-65
2022/03/08 06:27:54;;;;;;;37.93;18.83;;;3.10;99.90;;;;;;5034934;28;20263;-65
2022/03/08 06:30:20;;;;;;;37.30;19.03;;;3.30;99.90;;;;;;5036306;28;20191;-65
2022/03/08 06:32:45;;;;;;;35.43;16.93;;;3.10;99.90;;;;;;5034942;28;20178;-64
2022/03/08 06:35:11;;;;;;;31.30;15.77;;;3.90;99.90;;;;;;5035816;28;20409;-64
2022/03/08 06:37:37;;;;;;;26.50;11.90;;;3.60;99.90;;;;;;5035917;28;20604;-64
2022/03/08 06:40:04;;;;;;;40.60;18.87;;;3.20;99.90;;;;;;5033329;28;20196;-64
2022/03/08 06:42:33;;;;;;;39.83;18.37;;;3.20;99.90;;;;;;5036641;28;20518;-63
2022/03/08 06:44:59;;;;;;;28.67;14.20;;;3.50;99.90;;;;;;5018123;28;20712;-65
2022/03/08 06:47:24;;;;;;;32.63;15.87;;;3.20;99.90;;;;;;5035373;28;20359;-65
2022/03/08 06:49:50;;;;;;;43.20;17.60;;;3.40;99.90;;;;;;5035800;28;20228;-65
2022/03/08 06:52:16;;;;;;;35.53;17.03;;;3.40;99.90;;;;;;5035136;28;20217;-65
2022/03/08 06:54:42;;;;;;;43.23;18.63;;;3.40;99.90;;;;;;5035662;28;20259;-65
2022/03/08 06:57:08;;;;;;;38.20;16.67;;;3.00;99.90;;;;;;5036015;28;20208;-65
2022/03/08 06:59:33;;;;;;;29.03;14.20;;;3.30;99.90;;;;;;5035258;28;20174;-65
2022/03/08 07:01:59;;;;;;;34.53;16.03;;;3.30;99.90;;;;;;5032784;28;20170;-64
2022/03/08 07:04:25;;;;;;;37.07;18.17;;;3.30;99.90;;;;;;5014110;28;20244;-65
2022/03/08 07:06:51;;;;;;;32.40;14.87;;;3.30;99.90;;;;;;5032408;28;20170;-65
2022/03/08 07:09:17;;;;;;;41.73;18.13;;;3.30;99.90;;;;;;5031576;28;20178;-64
2022/03/08 07:11:43;;;;;;;42.13;16.23;;;3.30;99.90;;;;;;5031505;28;20529;-64
2022/03/08 07:14:10;;;;;;;37.07;16.40;;;3.40;99.90;;;;;;5031325;28;20178;-64
2022/03/08 07:16:36;;;;;;;41.63;18.33;;;3.30;99.90;;;;;;5031989;28;20166;-64
2022/03/08 07:19:02;;;;;;;33.87;16.50;;;3.40;99.90;;;;;;5032155;28;20220;-64
2022/03/08 07:21:28;;;;;;;45.47;20.67;;;3.90;99.90;;;;;;5032649;28;20192;-64
2022/03/08 07:23:54;;;;;;;22.23;10.73;;;4.10;99.90;;;;;;5032084;28;20182;-64
2022/03/08 07:26:19;;;;;;;33.43;17.40;;;3.50;99.90;;;;;;5031433;28;20384;-64
2022/03/08 07:28:45;;;;;;;44.40;19.63;;;3.80;99.90;;;;;;5032599;28;20197;-64
2022/03/08 07:31:12;;;;;;;42.30;18.97;;;3.80;99.90;;;;;;5031559;28;20190;-67
2022/03/08 07:33:38;;;;;;;40.33;19.33;;;3.80;99.90;;;;;;5031926;28;20184;-63
2022/03/08 07:36:04;;;;;;;40.07;20.20;;;3.90;99.90;;;;;;5031742;28;20521;-64
2022/03/08 07:38:30;;;;;;;44.23;19.03;;;3.80;99.90;;;;;;5032337;28;20253;-63
2022/03/08 07:40:56;;;;;;;42.77;19.00;;;3.80;99.90;;;;;;5032463;28;20585;-63
2022/03/08 07:43:21;;;;;;;35.00;18.13;;;3.90;99.90;;;;;;5033871;28;20640;-63
2022/03/08 07:45:47;;;;;;;47.20;20.20;;;3.70;99.90;;;;;;5037090;28;20539;-64
2022/03/08 07:48:13;;;;;;;45.43;21.80;;;4.20;99.90;;;;;;5030918;28;20293;-64
2022/03/08 07:50:39;;;;;;;40.03;19.80;;;4.00;99.90;;;;;;5031119;28;20194;-71
2022/03/08 07:53:05;;;;;;;39.10;18.90;;;4.00;99.90;;;;;;5030963;28;20678;-63
2022/03/08 07:55:31;;;;;;;45.03;20.40;;;4.10;99.90;;;;;;5030236;28;20178;-64
2022/03/08 07:57:58;;;;;;;41.23;20.57;;;4.30;99.90;;;;;;5031140;28;20584;-63
2022/03/08 08:00:25;;;;;;;41.23;20.27;;;4.60;99.90;;;;;;5030910;28;20663;-63
2022/03/08 08:02:50;;;;;;;40.47;21.10;;;4.70;99.90;;;;;;5031660;28;20182;-63
2022/03/08 08:05:17;;;;;;;43.50;20.30;;;4.60;99.90;;;;;;5031576;28;20178;-65
2022/03/08 08:07:44;;;;;;;45.07;20.90;;;4.60;99.90;;;;;;5030379;28;20573;-63
2022/03/08 08:10:10;;;;;;;41.40;20.00;;;4.80;99.90;;;;;;5032221;28;20636;-63
2022/03/08 08:12:36;;;;;;;40.67;20.43;;;4.90;99.90;;;;;;5030146;28;20170;-68
2022/03/08 08:15:03;;;;;;;43.37;21.83;;;4.90;99.90;;;;;;5030603;28;20178;-59
2022/03/08 08:17:29;;;;;;;39.30;17.80;;;4.90;99.90;;;;;;5030500;28;20206;-58
2022/03/08 08:19:54;;;;;;;41.23;20.30;;;4.90;99.90;;;;;;5030600;28;20170;-59
2022/03/08 08:22:20;;;;;;;41.50;21.07;;;5.00;99.90;;;;;;5031696;28;20243;-58
2022/03/08 08:24:46;;;;;;;36.70;19.33;;;5.00;99.90;;;;;;5030493;28;20686;-58
2022/03/08 08:27:11;;;;;;;41.13;19.83;;;5.10;99.90;;;;;;5031234;28;20174;-58
2022/03/08 08:29:37;;;;;;;40.07;18.70;;;5.10;99.90;;;;;;5030030;28;20166;-58
2022/03/08 08:32:03;;;;;;;49.10;21.43;;;5.40;99.90;;;;;;5028541;28;20232;-58
2022/03/08 08:34:29;;;;;;;38.57;20.13;;;5.20;99.90;;;;;;5037376;28;20181;-59
2022/03/08 08:36:55;;;;;;;40.93;20.47;;;5.30;99.90;;;;;;5049432;28;20179;-59
2022/03/08 08:39:21;;;;;;;54.40;21.60;;;5.40;99.90;;;;;;5030646;28;20621;-57
2022/03/08 08:41:46;;;;;;;40.87;19.93;;;5.30;99.90;;;;;;5030126;28;20177;-57
2022/03/08 08:44:13;;;;;;;44.90;20.60;;;5.20;99.90;;;;;;5029469;28;20236;-57
2022/03/08 08:46:39;;;;;;;39.93;19.77;;;5.30;99.90;;;;;;5030556;28;20178;-57
2022/03/08 08:49:05;;;;;;;37.90;19.53;;;5.30;99.90;;;;;;5030709;28;20304;-56
2022/03/08 08:51:32;;;;;;;41.30;19.17;;;5.40;99.90;;;;;;5031052;28;20182;-59
2022/03/08 08:53:58;;;;;;;39.83;17.93;;;5.50;99.90;;;;;;5028837;28;20596;-60
2022/03/08 08:56:24;;;;;;;43.97;21.63;;;5.50;99.90;;;;;;5029490;28;20178;-61
2022/03/08 08:58:49;;;;;;;37.60;17.67;;;6.80;99.90;;;;;;5029068;28;20213;-62
2022/03/08 09:01:15;;;;;;;38.17;19.47;;;6.60;99.90;;;;;;5030035;28;20170;-60
2022/03/08 09:03:41;;;;;;;39.80;20.23;;;6.20;99.90;;;;;;5029942;28;20189;-68
2022/03/08 09:06:06;;;;;;;37.83;19.00;;;6.00;99.90;;;;;;5041886;28;20165;-70
2022/03/08 09:08:32;;;;;;;38.53;18.43;;;6.10;99.90;;;;;;5034040;28;20259;-71
2022/03/08 09:10:58;;;;;;;36.63;18.80;;;6.10;99.90;;;;;;5038418;28;20170;-71
2022/03/08 09:13:25;;;;;;;35.00;16.83;;;6.20;99.90;;;;;;5030197;28;20185;-70
2022/03/08 09:15:51;;;;;;;44.13;20.63;;;6.30;99.90;;;;;;5030607;28;20202;-70
2022/03/08 09:18:17;;;;;;;42.10;19.77;;;6.50;99.90;;;;;;5029363;28;20284;-70
2022/03/08 09:20:43;;;;;;;48.17;21.97;;;6.50;99.90;;;;;;5031034;28;20196;-71
2022/03/08 09:23:09;;;;;;;40.77;19.43;;;6.70;99.90;;;;;;5030411;28;20529;-71
2022/03/08 09:25:35;;;;;;;34.10;16.57;;;7.10;99.90;;;;;;5028635;28;20224;-71
2022/03/08 09:28:05;;;;;;;48.17;20.67;;;6.60;99.90;;;;;;5011463;28;20185;-71
2022/03/08 09:30:32;;;;;;;39.37;20.20;;;6.70;99.90;;;;;;5010813;28;20185;-61
2022/03/08 09:32:58;;;;;;;26.67;13.27;;;6.70;99.90;;;;;;5029680;28;20652;-61
2022/03/08 09:35:28;;;;;;;40.00;19.40;;;6.70;99.90;;;;;;5029787;28;20186;-61
2022/03/08 09:37:54;;;;;;;31.93;13.80;;;6.70;99.90;;;;;;5029974;28;20213;-60
2022/03/08 09:40:20;;;;;;;36.93;15.97;;;6.70;99.90;;;;;;5030017;28;20174;-60
2022/03/08 09:42:46;;;;;;;37.50;17.63;;;6.70;99.90;;;;;;5027934;28;20174;-61
2022/03/08 09:45:11;;;;;;;28.63;12.30;;;6.70;99.90;;;;;;5029216;28;20170;-60
2022/03/08 09:47:38;;;;;;;43.93;20.93;;;6.70;99.90;;;;;;5028994;28;20173;-60
2022/03/08 09:50:04;;;;;;;44.07;20.73;;;6.80;99.90;;;;;;5029355;28;20225;-61
2022/03/08 09:52:35;;;;;;;28.73;12.70;;;6.90;99.90;;;;;;5029670;28;20185;-60
2022/03/08 09:55:02;;;;;;;48.17;21.37;;;6.90;99.90;;;;;;5028612;28;20209;-60
2022/03/08 09:57:28;;;;;;;42.90;18.13;;;7.10;99.90;;;;;;5029347;28;20224;-60
2022/03/08 09:59:53;;;;;;;34.73;16.13;;;7.20;99.90;;;;;;5029521;28;20212;-60
2022/03/08 10:02:22;;;;;;;40.90;20.70;;;7.30;99.90;;;;;;5029924;28;20173;-61
2022/03/08 10:05:02;;;;;;;30.23;13.97;;;7.50;99.90;;;;;;5029671;28;20185;-61
2022/03/08 10:07:27;;;;;;;37.97;18.60;;;7.70;99.90;;;;;;5028498;28;20181;-61
2022/03/08 10:09:57;;;;;;;30.30;14.23;;;7.90;99.90;;;;;;5044171;28;20547;-59
2022/03/08 10:12:23;;;;;;;30.37;14.43;;;7.70;99.90;;;;;;5028782;28;20691;-58
2022/03/08 10:14:48;;;;;;;31.07;13.27;;;7.70;99.90;;;;;;5029587;28;20989;-57
2022/03/08 10:17:34;;;;;;;35.20;16.07;;;7.60;99.90;;;;;;5029522;28;20204;-58
2022/03/08 10:20:00;;;;;;;27.80;12.87;;;7.70;99.90;;;;;;5028960;28;20643;-59
2022/03/08 10:22:31;;;;;;;25.13;11.13;;;8.40;99.90;;;;;;5029967;28;20647;-60
2022/03/08 10:25:19;;;;;;;38.73;18.23;;;9.60;99.90;;;;;;5029897;28;20193;-60
2022/03/08 10:27:54;;;;;;;35.83;18.77;;;11.30;99.90;;;;;;5029587;28;20170;-60
2022/03/08 10:30:28;;;;;;;37.03;18.67;;;11.30;99.90;;;;;;5029576;28;20180;-66
2022/03/08 10:32:56;;;;;;;35.43;18.10;;;11.30;99.90;;;;;;5028751;28;20180;-64
2022/03/08 10:35:27;;;;;;;33.13;17.93;;;10.60;99.90;;;;;;5028191;28;20181;-73
2022/03/08 10:37:57;;;;;;;34.77;16.93;;;9.70;99.90;;;;;;5031013;28;20210;-71
2022/03/08 10:40:30;;;;;;;22.23;10.63;;;10.60;99.90;;;;;;5032724;28;20194;-72
2022/03/08 10:43:06;;;;;;;35.07;18.50;;;10.60;99.90;;;;;;5031747;28;20257;-62
2022/03/08 10:45:34;;;;;;;34.37;15.93;;;10.40;99.90;;;;;;5032979;28;20184;-63
2022/03/08 10:48:03;;;;;;;35.33;15.97;;;11.40;99.90;;;;;;5032104;28;20174;-63
2022/03/08 10:50:31;;;;;;;37.03;17.67;;;11.80;99.90;;;;;;5032982;28;20264;-63
2022/03/08 10:52:59;;;;;;;33.07;17.00;;;12.10;99.90;;;;;;5031550;28;20166;-63
2022/03/08 10:55:29;;;;;;;35.73;18.87;;;10.80;99.90;;;;;;5032508;28;20177;-64
2022/03/08 10:58:04;;;;;;;30.97;16.73;;;11.80;99.90;;;;;;5032260;28;20292;-64
2022/03/08 11:00:32;;;;;;;38.53;18.53;;;11.00;99.90;;;;;;5032958;28;20169;-61
2022/03/08 11:03:01;;;;;;;30.10;16.13;;;10.70;99.90;;;;;;5033506;28;20192;-62
2022/03/08 11:05:32;;;;;;;35.10;14.33;;;10.20;99.90;;;;;;5023465;28;20240;-62
2022/03/08 11:07:58;;;;;;;40.00;18.53;;;11.20;99.90;;;;;;5015376;28;20251;-62
2022/03/08 11:10:26;;;;;;;29.50;13.83;;;11.50;99.90;;;;;;5031672;28;20204;-62
2022/03/08 11:12:55;;;;;;;37.50;19.43;;;11.20;99.90;;;;;;5031758;28;20170;-62
2022/03/08 11:15:22;;;;;;;44.50;17.97;;;11.20;99.90;;;;;;5032277;28;20194;-62
2022/03/08 11:17:50;;;;;;;31.90;18.03;;;12.10;99.90;;;;;;5032361;28;20240;-63
2022/03/08 11:20:18;;;;;;;39.10;19.40;;;13.00;99.90;;;;;;5014657;28;20178;-62
2022/03/08 11:22:45;;;;;;;36.23;17.73;;;13.90;99.90;;;;;;5032825;28;20228;-63
2022/03/08 11:25:13;;;;;;;32.13;16.48;;;13.20;99.90;;;;;;5032898;28;20173;-62
2022/03/08 11:27:40;;;;;;;35.47;18.57;;;13.30;99.90;;;;;;5031292;28;20205;-62
2022/03/08 11:30:10;;;;;;;34.50;18.00;;;13.30;99.90;;;;;;5032173;28;20201;-62
2022/03/08 11:32:58;;;;;;;36.17;15.83;;;13.30;99.90;;;;;;5032239;28;20205;-62
2022/03/08 11:35:23;;;;;;;37.17;16.88;;;13.60;99.90;;;;;;5029127;28;20265;-62
2022/03/08 11:37:50;;;;;;;33.65;14.88;;;12.90;99.90;;;;;;5031872;28;20375;-63
2022/03/08 11:40:20;;;;;;;27.00;13.57;;;13.40;99.90;;;;;;5032168;28;20174;-63
2022/03/08 11:42:50;;;;;;;32.53;16.38;;;13.50;99.90;;;;;;5031601;28;20195;-62
2022/03/08 11:45:24;;;;;;;32.38;17.83;;;13.10;99.90;;;;;;5029284;28;20422;-63
2022/03/08 11:47:59;;;;;;;29.67;13.80;;;11.90;99.90;;;;;;5031666;28;20180;-62
2022/03/08 11:50:36;;;;;;;35.55;15.40;;;12.90;99.90;;;;;;5031959;28;20184;-62
2022/03/08 11:53:07;;;;;;;27.60;14.60;;;13.70;99.90;;;;;;5032025;28;20185;-62
2022/03/08 11:55:44;;;;;;;28.40;15.70;;;14.40;99.90;;;;;;5031505;28;20258;-62
2022/03/08 11:58:13;;;;;;;22.20;12.30;;;14.10;99.90;;;;;;5028967;28;20216;-62
2022/03/08 12:00:59;;;;;;;29.93;14.57;;;12.80;99.90;;;;;;5031609;28;20174;-63
2022/03/08 12:03:27;;;;;;;27.08;15.57;;;13.20;99.90;;;;;;5031977;28;20272;-62
2022/03/08 12:05:57;;;;;;;29.08;15.15;;;13.80;99.90;;;;;;5031539;28;20170;-62
2022/03/08 12:08:29;;;;;;;29.42;15.90;;;15.20;99.90;;;;;;5031965;28;20710;-62
2022/03/08 12:11:15;;;;;;;34.10;16.00;;;15.20;99.90;;;;;;5031402;28;20235;-62
2022/03/08 12:13:44;;;;;;;25.45;14.27;;;15.80;99.90;;;;;;5031855;28;20170;-62
2022/03/08 12:16:09;;;;;;;30.15;13.40;;;14.80;99.90;;;;;;5031726;28;20166;-62
2022/03/08 12:18:42;;;;;;;35.25;13.63;;;13.70;99.90;;;;;;5031741;28;20229;-62
2022/03/08 12:21:17;;;;;;;28.38;16.08;;;13.80;99.90;;;;;;5031894;28;20193;-62
2022/03/08 12:24:00;;;;;;;27.90;13.00;;;14.90;99.90;;;;;;5031811;28;20205;-61
2022/03/08 12:26:33;;;;;;;25.70;14.85;;;15.60;99.90;;;;;;5031344;28;20265;-61
2022/03/08 12:29:20;;;;;;;27.58;15.07;;;14.90;99.90;;;;;;5031067;28;20166;-61
2022/03/08 12:32:01;;;;;;;27.15;15.70;;;13.80;99.90;;;;;;5030768;28;20170;-61
2022/03/08 12:34:35;;;;;;;32.35;15.32;;;14.20;99.90;;;;;;5031718;28;20170;-62